createdAt,value
2019-01-31T00:00:33.830Z,993.02
2019-01-31T00:01:33.570Z,993.06
2019-01-31T00:02:33.636Z,993.05
2019-01-31T00:03:33.555Z,993.11
2019-01-31T00:04:33.546Z,993.07
2019-01-31T00:05:33.679Z,993.21
2019-01-31T00:06:33.509Z,993.10
2019-01-31T00:07:33.644Z,993.16
2019-01-31T00:08:33.558Z,993.18
2019-01-31T00:09:33.475Z,993.23
2019-01-31T00:10:33.578Z,993.15
2019-01-31T00:11:33.640Z,993.22
2019-01-31T00:12:33.576Z,993.15
2019-01-31T00:13:33.484Z,993.22
2019-01-31T00:14:33.560Z,993.17
2019-01-31T00:15:33.531Z,993.20
2019-01-31T00:16:33.505Z,993.21
2019-01-31T00:17:33.462Z,993.16
2019-01-31T00:18:33.529Z,993.21
2019-01-31T00:19:33.420Z,993.18
2019-01-31T00:20:33.508Z,993.19
2019-01-31T00:21:33.365Z,993.21
2019-01-31T00:22:33.657Z,993.18
2019-01-31T00:23:33.632Z,993.11
2019-01-31T00:24:33.433Z,993.12
2019-01-31T00:25:33.494Z,993.14
2019-01-31T00:26:33.405Z,993.20
2019-01-31T00:27:33.470Z,993.19
2019-01-31T00:28:33.338Z,993.22
2019-01-31T00:29:33.666Z,993.23
2019-01-31T00:30:33.395Z,993.26
2019-01-31T00:31:33.526Z,993.24
2019-01-31T00:32:33.331Z,993.23
2019-01-31T00:33:33.370Z,993.22
2019-01-31T00:34:33.239Z,993.21
2019-01-31T00:35:33.334Z,993.25
2019-01-31T00:36:33.487Z,993.21
2019-01-31T00:37:33.285Z,993.21
2019-01-31T00:38:33.316Z,993.23
2019-01-31T00:39:33.452Z,993.17
2019-01-31T00:40:33.382Z,993.19
2019-01-31T00:41:33.555Z,993.21
2019-01-31T00:42:33.255Z,993.23
2019-01-31T00:43:33.203Z,993.26
2019-01-31T00:44:33.404Z,993.28
2019-01-31T00:45:33.132Z,993.29
2019-01-31T00:46:33.458Z,993.26
2019-01-31T00:47:33.223Z,993.29
2019-01-31T00:48:33.261Z,993.32
2019-01-31T00:49:33.151Z,993.27
2019-01-31T00:50:33.247Z,993.32
2019-01-31T00:51:33.143Z,993.31
2019-01-31T00:52:33.157Z,993.28
2019-01-31T00:53:33.231Z,993.27
2019-01-31T00:54:33.126Z,993.31
2019-01-31T00:55:33.416Z,993.28
2019-01-31T00:56:33.084Z,993.26
2019-01-31T00:57:33.498Z,993.24
2019-01-31T00:58:33.145Z,993.23
2019-01-31T00:59:33.095Z,993.31
2019-01-31T01:00:33.042Z,993.24
2019-01-31T01:01:33.078Z,993.22
2019-01-31T01:02:32.975Z,993.20
2019-01-31T01:03:33.138Z,993.19
2019-01-31T01:04:32.935Z,993.20
2019-01-31T01:05:33.267Z,993.21
2019-01-31T01:06:32.962Z,993.16
2019-01-31T01:07:33.195Z,993.15
2019-01-31T01:08:32.865Z,993.13
2019-01-31T01:09:32.886Z,993.15
2019-01-31T01:10:32.811Z,993.12
2019-01-31T01:11:32.998Z,993.18
2019-01-31T01:12:32.895Z,993.14
2019-01-31T01:13:33.135Z,993.17
2019-01-31T01:14:32.863Z,993.19
2019-01-31T01:15:33.099Z,993.22
2019-01-31T01:16:32.899Z,993.15
2019-01-31T01:17:32.838Z,993.13
2019-01-31T01:18:33.072Z,993.13
2019-01-31T01:19:32.771Z,993.11
2019-01-31T01:20:32.760Z,993.18
2019-01-31T01:21:32.778Z,993.07
2019-01-31T01:22:32.871Z,993.20
2019-01-31T01:23:32.869Z,993.14
2019-01-31T01:24:32.723Z,993.14
2019-01-31T01:25:32.738Z,993.15
2019-01-31T01:26:32.737Z,993.09
2019-01-31T01:27:32.696Z,993.16
2019-01-31T01:28:32.787Z,993.19
2019-01-31T01:29:32.828Z,993.15
2019-01-31T01:30:32.732Z,993.14
2019-01-31T01:31:32.711Z,993.11
2019-01-31T01:32:32.640Z,993.10
2019-01-31T01:33:32.655Z,993.11
2019-01-31T01:34:32.675Z,993.16
2019-01-31T01:35:32.838Z,993.06
2019-01-31T01:36:32.603Z,993.10
2019-01-31T01:37:32.572Z,993.05
2019-01-31T01:38:32.570Z,993.08
2019-01-31T01:39:32.634Z,993.03
2019-01-31T01:40:32.673Z,993.04
2019-01-31T01:41:32.533Z,993.03
2019-01-31T01:42:32.453Z,993.02
2019-01-31T01:43:32.498Z,993.04
2019-01-31T01:44:32.555Z,993.04
2019-01-31T01:45:32.463Z,993.01
2019-01-31T01:46:32.546Z,993.02
2019-01-31T01:47:32.461Z,993.04
2019-01-31T01:48:32.507Z,993.04
2019-01-31T01:49:32.473Z,993.00
2019-01-31T01:50:32.410Z,993.03
2019-01-31T01:51:32.412Z,993.02
2019-01-31T01:52:32.397Z,993.02
2019-01-31T01:53:32.383Z,992.96
2019-01-31T01:54:32.343Z,992.98
2019-01-31T01:55:32.397Z,993.04
2019-01-31T01:56:32.367Z,993.05
2019-01-31T01:57:32.342Z,993.04
2019-01-31T01:58:32.360Z,992.96
2019-01-31T01:59:32.307Z,993.02
2019-01-31T02:00:32.286Z,993.02
2019-01-31T02:01:32.251Z,993.03
2019-01-31T02:02:32.244Z,993.03
2019-01-31T02:03:32.241Z,992.98
2019-01-31T02:04:32.219Z,992.97
2019-01-31T02:05:32.244Z,993.03
2019-01-31T02:06:32.249Z,992.99
2019-01-31T02:07:32.186Z,992.97
2019-01-31T02:08:32.261Z,992.99
2019-01-31T02:09:32.178Z,993.05
2019-01-31T02:10:32.199Z,992.99
2019-01-31T02:11:32.166Z,993.00
2019-01-31T02:12:32.137Z,993.03
2019-01-31T02:13:32.142Z,993.00
2019-01-31T02:14:32.120Z,992.95
2019-01-31T02:15:32.151Z,992.93
2019-01-31T02:16:32.103Z,992.96
2019-01-31T02:17:32.089Z,992.92
2019-01-31T02:18:32.116Z,992.95
2019-01-31T02:19:32.070Z,992.96
2019-01-31T02:20:32.075Z,992.89
2019-01-31T02:21:32.082Z,992.94
2019-01-31T02:22:32.036Z,992.93
2019-01-31T02:23:32.016Z,992.92
2019-01-31T02:24:32.055Z,992.93
2019-01-31T02:25:32.036Z,992.94
2019-01-31T02:26:32.060Z,992.92
2019-01-31T02:27:31.982Z,993.00
2019-01-31T02:28:32.072Z,993.01
2019-01-31T02:29:31.957Z,993.04
2019-01-31T02:30:31.954Z,992.94
2019-01-31T02:31:31.971Z,992.99
2019-01-31T02:32:31.923Z,992.99
2019-01-31T02:33:31.921Z,992.98
2019-01-31T02:34:31.945Z,992.93
2019-01-31T02:35:31.928Z,992.92
2019-01-31T02:36:31.889Z,992.98
2019-01-31T02:37:31.894Z,992.90
2019-01-31T02:38:31.887Z,992.92
2019-01-31T02:39:42.781Z,992.90
2019-01-31T02:40:32.849Z,992.89
2019-01-31T02:41:31.860Z,992.88
2019-01-31T02:42:31.850Z,992.84
2019-01-31T02:43:31.808Z,992.82
2019-01-31T02:44:31.811Z,992.81
2019-01-31T02:45:31.786Z,992.86
2019-01-31T02:46:31.794Z,992.85
2019-01-31T02:47:31.823Z,992.84
2019-01-31T02:48:31.760Z,992.89
2019-01-31T02:49:31.753Z,992.90
2019-01-31T02:50:31.745Z,992.87
2019-01-31T02:51:31.724Z,992.87
2019-01-31T02:52:31.763Z,992.90
2019-01-31T02:53:31.715Z,992.89
2019-01-31T02:54:31.707Z,992.89
2019-01-31T02:55:31.702Z,992.91
2019-01-31T02:57:07.607Z,992.86
2019-01-31T02:57:31.670Z,992.88
2019-01-31T02:58:31.689Z,992.94
2019-01-31T02:59:31.656Z,992.89
2019-01-31T03:00:31.647Z,992.94
2019-01-31T03:01:31.626Z,992.97
2019-01-31T03:02:31.643Z,992.90
2019-01-31T03:03:31.623Z,992.88
2019-01-31T03:04:31.589Z,992.89
2019-01-31T03:05:31.595Z,992.88
2019-01-31T03:06:31.575Z,992.92
2019-01-31T03:07:31.574Z,992.92
2019-01-31T03:08:31.576Z,992.91
2019-01-31T03:09:31.535Z,992.92
2019-01-31T03:10:31.533Z,992.90
2019-01-31T03:11:31.521Z,992.88
2019-01-31T03:12:31.509Z,992.89
2019-01-31T03:13:31.524Z,992.88
2019-01-31T03:14:31.497Z,992.86
2019-01-31T03:15:31.475Z,992.93
2019-01-31T03:16:31.464Z,992.92
2019-01-31T03:17:31.476Z,992.90
2019-01-31T03:18:31.476Z,992.91
2019-01-31T03:19:31.481Z,992.89
2019-01-31T03:20:31.426Z,992.94
2019-01-31T03:21:31.420Z,992.91
2019-01-31T03:22:31.406Z,992.89
2019-01-31T03:23:31.404Z,992.82
2019-01-31T03:24:31.404Z,992.84
2019-01-31T03:25:31.388Z,992.83
2019-01-31T03:26:31.365Z,992.86
2019-01-31T03:27:31.363Z,992.81
2019-01-31T03:28:31.335Z,992.84
2019-01-31T03:29:31.373Z,992.85
2019-01-31T03:30:31.326Z,992.85
2019-01-31T03:31:31.339Z,992.84
2019-01-31T03:32:31.310Z,992.85
2019-01-31T03:33:31.293Z,992.80
2019-01-31T03:34:31.311Z,992.81
2019-01-31T03:35:31.264Z,992.76
2019-01-31T03:36:31.253Z,992.78
2019-01-31T03:37:31.316Z,992.78
2019-01-31T03:38:33.058Z,992.78
2019-01-31T03:39:31.257Z,992.78
2019-01-31T03:40:31.217Z,992.82
2019-01-31T03:41:31.214Z,992.84
2019-01-31T03:42:31.192Z,992.82
2019-01-31T03:43:31.185Z,992.78
2019-01-31T03:44:31.208Z,992.82
2019-01-31T03:45:31.166Z,992.82
2019-01-31T03:46:31.154Z,992.80
2019-01-31T03:47:31.154Z,992.79
2019-01-31T03:48:31.135Z,992.84
2019-01-31T03:49:31.168Z,992.76
2019-01-31T03:50:31.123Z,992.83
2019-01-31T03:51:31.106Z,992.86
2019-01-31T03:52:31.093Z,992.90
2019-01-31T03:53:31.077Z,992.85
2019-01-31T03:54:31.066Z,992.89
2019-01-31T03:55:31.119Z,992.86
2019-01-31T03:56:31.047Z,992.84
2019-01-31T03:57:31.040Z,992.84
2019-01-31T03:58:31.030Z,992.84
2019-01-31T03:59:31.021Z,992.84
2019-01-31T04:00:31.051Z,992.81
2019-01-31T04:01:31.008Z,992.78
2019-01-31T04:02:30.989Z,992.73
2019-01-31T04:03:32.616Z,992.81
2019-01-31T04:04:30.978Z,992.78
2019-01-31T04:05:31.000Z,992.78
2019-01-31T04:06:30.950Z,992.74
2019-01-31T04:07:30.944Z,992.79
2019-01-31T04:08:30.950Z,992.77
2019-01-31T04:09:30.918Z,992.72
2019-01-31T04:10:30.923Z,992.76
2019-01-31T04:11:30.893Z,992.76
2019-01-31T04:12:30.886Z,992.68
2019-01-31T04:13:30.874Z,992.84
2019-01-31T04:14:30.900Z,992.80
2019-01-31T04:15:30.893Z,992.79
2019-01-31T04:16:30.847Z,992.76
2019-01-31T04:17:30.845Z,992.83
2019-01-31T04:18:30.863Z,992.83
2019-01-31T04:19:30.812Z,992.87
2019-01-31T04:20:30.824Z,992.75
2019-01-31T04:21:30.823Z,992.84
2019-01-31T04:22:30.784Z,992.75
2019-01-31T04:23:30.776Z,992.79
2019-01-31T04:24:30.754Z,992.84
2019-01-31T04:25:30.815Z,992.79
2019-01-31T04:26:30.772Z,992.80
2019-01-31T04:27:30.728Z,992.80
2019-01-31T04:28:31.006Z,992.87
2019-01-31T04:29:30.744Z,992.78
2019-01-31T04:30:30.738Z,992.85
2019-01-31T04:31:30.706Z,992.83
2019-01-31T04:32:30.674Z,992.81
2019-01-31T04:33:30.663Z,992.87
2019-01-31T04:34:30.661Z,992.82
2019-01-31T04:35:30.676Z,992.82
2019-01-31T04:36:30.651Z,992.78
2019-01-31T04:37:30.632Z,992.84
2019-01-31T04:38:30.615Z,992.85
2019-01-31T04:39:30.605Z,992.84
2019-01-31T04:40:31.747Z,992.83
2019-01-31T04:41:30.606Z,992.81
2019-01-31T04:42:30.576Z,992.86
2019-01-31T04:43:30.560Z,992.84
2019-01-31T04:44:30.572Z,992.78
2019-01-31T04:45:30.545Z,992.86
2019-01-31T04:46:30.547Z,992.87
2019-01-31T04:47:30.523Z,992.92
2019-01-31T04:48:30.507Z,992.87
2019-01-31T04:49:30.516Z,992.89
2019-01-31T04:50:30.499Z,992.86
2019-01-31T04:51:30.517Z,992.92
2019-01-31T04:52:30.462Z,992.89
2019-01-31T04:53:30.471Z,992.90
2019-01-31T04:54:30.444Z,992.86
2019-01-31T04:55:30.434Z,992.83
2019-01-31T04:56:30.419Z,992.88
2019-01-31T04:57:30.443Z,992.85
2019-01-31T04:58:30.407Z,992.81
2019-01-31T04:59:30.397Z,992.85
2019-01-31T05:00:30.426Z,992.86
2019-01-31T05:01:30.374Z,992.83
2019-01-31T05:02:30.387Z,992.81
2019-01-31T05:03:30.354Z,992.80
2019-01-31T05:04:30.343Z,992.81
2019-01-31T05:05:30.337Z,992.80
2019-01-31T05:06:30.323Z,992.73
2019-01-31T05:07:30.340Z,992.75
2019-01-31T05:08:30.937Z,992.77
2019-01-31T05:09:30.301Z,992.87
2019-01-31T05:10:42.438Z,992.85
2019-01-31T05:11:31.272Z,992.84
2019-01-31T05:12:30.280Z,992.84
2019-01-31T05:13:30.248Z,992.85
2019-01-31T05:14:30.241Z,992.78
2019-01-31T05:15:30.229Z,992.85
2019-01-31T05:16:30.318Z,992.82
2019-01-31T05:17:30.253Z,992.80
2019-01-31T05:18:30.334Z,992.79
2019-01-31T05:19:30.248Z,992.75
2019-01-31T05:20:30.201Z,992.76
2019-01-31T05:21:30.226Z,992.81
2019-01-31T05:22:30.252Z,992.82
2019-01-31T05:23:30.217Z,992.85
2019-01-31T05:24:30.178Z,992.85
2019-01-31T05:25:30.163Z,992.81
2019-01-31T05:26:30.173Z,992.85
2019-01-31T05:27:30.185Z,992.77
2019-01-31T05:28:30.284Z,992.80
2019-01-31T05:29:30.186Z,992.79
2019-01-31T05:30:30.171Z,992.80
2019-01-31T05:31:30.126Z,992.81
2019-01-31T05:32:30.100Z,992.81
2019-01-31T05:33:30.133Z,992.86
2019-01-31T05:34:30.056Z,992.88
2019-01-31T05:35:30.091Z,992.86
2019-01-31T05:36:30.042Z,992.81
2019-01-31T05:37:30.017Z,992.84
2019-01-31T05:38:30.050Z,992.86
2019-01-31T05:39:30.013Z,992.84
2019-01-31T05:40:30.026Z,992.86
2019-01-31T05:41:29.998Z,992.79
2019-01-31T05:42:30.018Z,992.81
2019-01-31T05:43:29.975Z,992.79
2019-01-31T05:44:30.010Z,992.80
2019-01-31T05:45:29.954Z,992.82
2019-01-31T05:46:29.985Z,992.82
2019-01-31T05:47:29.923Z,992.90
2019-01-31T05:48:29.945Z,992.86
2019-01-31T05:49:29.900Z,992.83
2019-01-31T05:50:30.583Z,992.91
2019-01-31T05:51:29.906Z,992.91
2019-01-31T05:52:29.891Z,992.83
2019-01-31T05:53:30.070Z,992.86
2019-01-31T05:54:29.854Z,992.83
2019-01-31T05:55:29.911Z,992.83
2019-01-31T05:56:29.815Z,992.81
2019-01-31T05:57:29.879Z,992.85
2019-01-31T05:58:29.898Z,992.82
2019-01-31T05:59:29.861Z,992.88
2019-01-31T06:00:29.809Z,992.85
2019-01-31T06:01:29.761Z,992.86
2019-01-31T06:02:29.762Z,992.85
2019-01-31T06:03:29.774Z,992.88
2019-01-31T06:04:29.732Z,992.97
2019-01-31T06:05:29.722Z,992.94
2019-01-31T06:06:29.704Z,992.91
2019-01-31T06:07:29.746Z,992.90
2019-01-31T06:08:29.764Z,992.92
2019-01-31T06:09:29.688Z,992.86
2019-01-31T06:10:29.708Z,992.96
2019-01-31T06:11:29.698Z,992.91
2019-01-31T06:12:29.727Z,992.88
2019-01-31T06:13:29.674Z,992.91
2019-01-31T06:14:29.677Z,992.88
2019-01-31T06:15:29.623Z,992.88
2019-01-31T06:16:29.612Z,992.88
2019-01-31T06:17:29.636Z,992.89
2019-01-31T06:18:29.582Z,992.85
2019-01-31T06:19:29.636Z,992.85
2019-01-31T06:20:29.573Z,992.86
2019-01-31T06:21:29.942Z,992.87
2019-01-31T06:22:29.555Z,992.85
2019-01-31T06:23:29.550Z,992.89
2019-01-31T06:24:29.541Z,992.88
2019-01-31T06:25:29.562Z,992.90
2019-01-31T06:26:29.524Z,992.85
2019-01-31T06:27:29.502Z,992.90
2019-01-31T06:28:29.540Z,992.91
2019-01-31T06:29:29.475Z,992.93
2019-01-31T06:30:29.510Z,992.92
2019-01-31T06:31:29.493Z,992.95
2019-01-31T06:32:29.444Z,992.94
2019-01-31T06:33:29.513Z,992.92
2019-01-31T06:34:30.175Z,992.93
2019-01-31T06:35:29.733Z,992.97
2019-01-31T06:36:29.498Z,992.92
2019-01-31T06:37:29.407Z,992.95
2019-01-31T06:38:29.432Z,993.00
2019-01-31T06:39:29.412Z,992.92
2019-01-31T06:40:30.277Z,992.91
2019-01-31T06:41:29.341Z,992.95
2019-01-31T06:42:29.337Z,992.94
2019-01-31T06:43:29.335Z,992.93
2019-01-31T06:44:29.340Z,992.97
2019-01-31T06:45:29.323Z,992.98
2019-01-31T06:46:29.302Z,993.04
2019-01-31T06:47:29.341Z,993.08
2019-01-31T06:48:29.281Z,993.10
2019-01-31T06:49:29.303Z,993.08
2019-01-31T06:50:29.315Z,993.08
2019-01-31T06:51:29.275Z,993.06
2019-01-31T06:52:29.231Z,993.03
2019-01-31T06:53:29.223Z,993.05
2019-01-31T06:54:29.251Z,993.06
2019-01-31T06:55:29.206Z,993.07
2019-01-31T06:56:29.211Z,993.08
2019-01-31T06:57:29.213Z,993.12
2019-01-31T06:58:29.173Z,993.15
2019-01-31T06:59:29.157Z,993.14
2019-01-31T07:00:29.179Z,993.13
2019-01-31T07:01:29.155Z,993.15
2019-01-31T07:02:29.136Z,993.17
2019-01-31T07:03:29.125Z,993.17
2019-01-31T07:04:29.118Z,993.17
2019-01-31T07:05:29.113Z,993.24
2019-01-31T07:06:30.663Z,993.20
2019-01-31T07:07:29.179Z,993.22
2019-01-31T07:08:29.124Z,993.27
2019-01-31T07:09:29.054Z,993.25
2019-01-31T07:10:29.037Z,993.28
2019-01-31T07:11:30.364Z,993.30
2019-01-31T07:12:29.083Z,993.27
2019-01-31T07:13:29.141Z,993.27
2019-01-31T07:14:29.018Z,993.31
2019-01-31T07:15:29.212Z,993.32
2019-01-31T07:16:29.069Z,993.28
2019-01-31T07:17:29.195Z,993.26
2019-01-31T07:18:28.974Z,993.26
2019-01-31T07:19:28.976Z,993.31
2019-01-31T07:20:28.963Z,993.29
2019-01-31T07:21:28.944Z,993.25
2019-01-31T07:22:28.921Z,993.33
2019-01-31T07:23:28.947Z,993.35
2019-01-31T07:24:28.896Z,993.32
2019-01-31T07:25:28.892Z,993.39
2019-01-31T07:26:28.892Z,993.34
2019-01-31T07:27:28.877Z,993.40
2019-01-31T07:28:28.878Z,993.43
2019-01-31T07:29:30.022Z,993.41
2019-01-31T07:30:28.831Z,993.38
2019-01-31T07:31:28.930Z,993.42
2019-01-31T07:32:28.962Z,993.44
2019-01-31T07:33:28.828Z,993.44
2019-01-31T07:34:28.846Z,993.39
2019-01-31T07:35:28.800Z,993.44
2019-01-31T07:36:28.943Z,993.46
2019-01-31T07:37:28.772Z,993.39
2019-01-31T07:38:28.775Z,993.41
2019-01-31T07:39:28.765Z,993.44
2019-01-31T07:40:28.737Z,993.44
2019-01-31T07:41:28.750Z,993.41
2019-01-31T07:42:28.717Z,993.40
2019-01-31T07:43:28.749Z,993.38
2019-01-31T07:44:28.781Z,993.46
2019-01-31T07:45:28.677Z,993.42
2019-01-31T07:46:28.669Z,993.45
2019-01-31T07:47:28.713Z,993.45
2019-01-31T07:48:28.680Z,993.44
2019-01-31T07:49:28.653Z,993.45
2019-01-31T07:50:28.685Z,993.41
2019-01-31T07:51:28.670Z,993.44
2019-01-31T07:52:28.618Z,993.43
2019-01-31T07:53:28.674Z,993.41
2019-01-31T07:54:28.643Z,993.46
2019-01-31T07:55:28.609Z,993.45
2019-01-31T07:56:28.588Z,993.45
2019-01-31T07:57:28.560Z,993.45
2019-01-31T07:58:28.687Z,993.44
2019-01-31T07:59:28.690Z,993.46
2019-01-31T08:00:28.545Z,993.47
2019-01-31T08:01:28.511Z,993.45
2019-01-31T08:02:28.516Z,993.41
2019-01-31T08:03:28.536Z,993.43
2019-01-31T08:04:28.669Z,993.38
2019-01-31T08:05:28.478Z,993.42
2019-01-31T08:06:28.581Z,993.41
2019-01-31T08:07:28.781Z,993.41
2019-01-31T08:08:28.461Z,993.41
2019-01-31T08:09:28.937Z,993.34
2019-01-31T08:10:31.494Z,993.39
2019-01-31T08:11:28.568Z,993.41
2019-01-31T08:12:28.591Z,993.42
2019-01-31T08:13:28.432Z,993.45
2019-01-31T08:14:28.437Z,993.46
2019-01-31T08:15:28.400Z,993.38
2019-01-31T08:16:28.439Z,993.40
2019-01-31T08:17:28.362Z,993.45
2019-01-31T08:18:28.375Z,993.39
2019-01-31T08:19:28.349Z,993.43
2019-01-31T08:20:28.332Z,993.41
2019-01-31T08:21:28.323Z,993.46
2019-01-31T08:22:28.299Z,993.40
2019-01-31T08:23:28.287Z,993.37
2019-01-31T08:24:28.372Z,993.34
2019-01-31T08:25:28.294Z,993.42
2019-01-31T08:26:28.291Z,993.40
2019-01-31T08:27:28.269Z,993.36
2019-01-31T08:28:28.298Z,993.37
2019-01-31T08:29:28.256Z,993.39
2019-01-31T08:30:28.288Z,993.40
2019-01-31T08:31:28.213Z,993.40
2019-01-31T08:32:28.214Z,993.40
2019-01-31T08:33:28.461Z,993.37
2019-01-31T08:34:28.246Z,993.42
2019-01-31T08:35:28.325Z,993.43
2019-01-31T08:36:28.298Z,993.41
2019-01-31T08:37:28.183Z,993.44
2019-01-31T08:38:28.148Z,993.43
2019-01-31T08:39:28.124Z,993.45
2019-01-31T08:40:28.179Z,993.41
2019-01-31T08:41:28.108Z,993.42
2019-01-31T08:42:28.120Z,993.40
2019-01-31T08:43:28.097Z,993.44
2019-01-31T08:44:28.082Z,993.43
2019-01-31T08:45:28.143Z,993.42
2019-01-31T08:46:28.068Z,993.43
2019-01-31T08:47:28.105Z,993.39
2019-01-31T08:48:28.041Z,993.38
2019-01-31T08:49:29.086Z,993.42
2019-01-31T08:50:28.151Z,993.38
2019-01-31T08:51:28.063Z,993.42
2019-01-31T08:52:28.041Z,993.44
2019-01-31T08:53:28.011Z,993.45
2019-01-31T08:54:28.032Z,993.40
2019-01-31T08:55:28.000Z,993.38
2019-01-31T08:56:28.072Z,993.39
2019-01-31T08:57:27.986Z,993.44
2019-01-31T08:58:28.039Z,993.42
2019-01-31T08:59:27.956Z,993.44
2019-01-31T09:00:27.983Z,993.43
2019-01-31T09:01:28.002Z,993.37
2019-01-31T09:02:28.233Z,993.42
2019-01-31T09:03:27.962Z,993.45
2019-01-31T09:04:28.263Z,993.40
2019-01-31T09:05:27.891Z,993.41
2019-01-31T09:06:27.877Z,993.36
2019-01-31T09:07:29.354Z,993.33
2019-01-31T09:08:27.966Z,993.35
2019-01-31T09:11:14.302Z,993.36
2019-01-31T09:12:15.313Z,993.30
2019-01-31T09:13:14.242Z,993.31
2019-01-31T09:14:14.194Z,993.30
2019-01-31T09:15:14.036Z,993.26
2019-01-31T09:16:14.152Z,993.28
2019-01-31T09:17:14.145Z,993.27
2019-01-31T09:18:14.157Z,993.32
2019-01-31T09:19:14.373Z,993.35
2019-01-31T09:21:19.263Z,993.38
2019-01-31T09:23:36.599Z,993.29
2019-01-31T09:24:34.903Z,993.38
2019-01-31T09:25:34.816Z,993.34
2019-01-31T09:26:34.810Z,993.37
2019-01-31T09:27:34.704Z,993.39
2019-01-31T09:28:34.720Z,993.28
2019-01-31T09:29:34.606Z,993.32
2019-01-31T09:30:34.681Z,993.28
2019-01-31T09:31:34.705Z,993.25
2019-01-31T09:32:34.704Z,993.27
2019-01-31T09:33:34.627Z,993.23
2019-01-31T09:34:34.683Z,993.30
2019-01-31T09:35:34.655Z,993.28
2019-01-31T09:36:34.637Z,993.30
2019-01-31T09:37:35.024Z,993.38
2019-01-31T09:38:35.203Z,993.32
2019-01-31T09:39:34.537Z,993.38
2019-01-31T09:40:34.589Z,993.41
2019-01-31T09:41:34.496Z,993.37
2019-01-31T09:42:37.688Z,993.36
2019-01-31T09:43:34.509Z,993.32
2019-01-31T09:44:34.610Z,993.40
2019-01-31T09:45:34.450Z,993.32
2019-01-31T09:46:34.433Z,993.33
2019-01-31T09:47:34.605Z,993.37
2019-01-31T09:48:34.486Z,993.40
2019-01-31T09:49:34.463Z,993.37
2019-01-31T09:50:34.422Z,993.41
2019-01-31T09:51:34.483Z,993.37
2019-01-31T09:52:34.522Z,993.37
2019-01-31T09:53:34.490Z,993.38
2019-01-31T09:54:34.444Z,993.39
2019-01-31T09:55:34.640Z,993.33
2019-01-31T09:56:34.932Z,993.36
2019-01-31T09:57:35.281Z,993.38
2019-01-31T09:58:34.512Z,993.32
2019-01-31T09:59:34.262Z,993.35
2019-01-31T10:00:34.419Z,993.32
2019-01-31T10:01:34.352Z,993.38
2019-01-31T10:02:34.525Z,993.34
2019-01-31T10:03:34.945Z,993.34
2019-01-31T10:04:34.473Z,993.38
2019-01-31T10:05:34.414Z,993.36
2019-01-31T10:06:36.963Z,993.38
2019-01-31T10:07:34.478Z,993.37
2019-01-31T10:08:34.476Z,993.37
2019-01-31T10:09:34.433Z,993.39
2019-01-31T10:10:34.532Z,993.37
2019-01-31T10:11:34.391Z,993.40
2019-01-31T10:12:38.442Z,993.41
2019-01-31T10:13:34.487Z,993.43
2019-01-31T10:14:34.399Z,993.43
2019-01-31T10:15:34.571Z,993.36
2019-01-31T10:16:34.609Z,993.39
2019-01-31T10:17:34.505Z,993.28
2019-01-31T10:18:35.089Z,993.39
2019-01-31T10:19:34.591Z,993.32
2019-01-31T10:20:34.965Z,993.30
2019-01-31T11:07:34.496Z,992.95
2019-01-31T11:09:35.119Z,992.86
2019-01-31T11:11:11.666Z,992.88
2019-01-31T11:11:37.411Z,992.88
2019-01-31T11:12:41.757Z,992.82
2019-01-31T11:13:34.694Z,992.83
2019-01-31T11:14:34.563Z,992.81
2019-01-31T11:15:34.907Z,992.83
2019-01-31T11:16:34.524Z,992.76
2019-01-31T11:17:35.874Z,992.79
2019-01-31T11:18:34.628Z,992.76
2019-01-31T11:19:34.440Z,992.77
2019-01-31T11:20:34.697Z,992.77
2019-01-31T11:21:34.359Z,992.78
2019-01-31T11:22:34.621Z,992.77
2019-01-31T11:23:34.534Z,992.76
2019-01-31T11:24:34.378Z,992.71
2019-01-31T11:25:34.601Z,992.74
2019-01-31T11:26:34.596Z,992.73
2019-01-31T11:27:34.530Z,992.71
2019-01-31T11:28:34.543Z,992.76
2019-01-31T11:29:36.542Z,992.74
2019-01-31T11:30:34.089Z,992.79
2019-01-31T11:31:34.613Z,992.79
2019-01-31T11:32:35.116Z,992.80
2019-01-31T11:33:34.364Z,992.72
2019-01-31T11:34:34.414Z,992.77
2019-01-31T11:35:34.803Z,992.73
2019-01-31T11:36:34.297Z,992.72
2019-01-31T11:37:36.902Z,992.72
2019-01-31T11:38:35.100Z,992.68
2019-01-31T11:54:45.633Z,992.70
2019-01-31T12:33:30.980Z,992.83
2019-01-31T12:34:24.818Z,992.75
2019-01-31T12:35:22.075Z,992.70
2019-01-31T12:36:21.093Z,992.75
2019-01-31T12:37:21.226Z,992.66
2019-01-31T12:38:21.167Z,992.67
2019-01-31T12:39:21.189Z,992.64
2019-01-31T12:40:21.102Z,992.63
2019-01-31T12:41:21.382Z,992.58
2019-01-31T12:42:20.998Z,992.62
2019-01-31T12:43:20.978Z,992.55
2019-01-31T12:44:20.898Z,992.58
2019-01-31T12:45:21.292Z,992.62
2019-01-31T12:46:20.939Z,992.56
2019-01-31T12:47:20.779Z,992.58
2019-01-31T12:48:20.957Z,992.59
2019-01-31T12:49:20.896Z,992.59
2019-01-31T12:50:20.912Z,992.56
2019-01-31T12:51:21.348Z,992.58
2019-01-31T12:52:20.807Z,992.62
2019-01-31T12:53:21.601Z,992.53
2019-01-31T12:54:20.859Z,992.52
2019-01-31T12:55:22.059Z,992.50
2019-01-31T12:56:20.970Z,992.52
2019-01-31T12:57:22.670Z,992.47
2019-01-31T12:58:20.855Z,992.50
2019-01-31T12:59:21.052Z,992.44
2019-01-31T13:00:20.782Z,992.52
2019-01-31T13:01:21.173Z,992.47
2019-01-31T13:02:20.673Z,992.48
2019-01-31T13:03:20.768Z,992.46
2019-01-31T13:04:20.987Z,992.42
2019-01-31T13:05:20.953Z,992.45
2019-01-31T13:06:21.261Z,992.45
2019-01-31T13:07:20.885Z,992.43
2019-01-31T13:08:20.644Z,992.49
2019-01-31T13:09:20.772Z,992.47
2019-01-31T13:10:20.696Z,992.46
2019-01-31T13:11:21.179Z,992.49
2019-01-31T13:12:20.642Z,992.50
2019-01-31T13:13:20.879Z,992.46
2019-01-31T13:14:20.512Z,992.49
2019-01-31T13:15:21.118Z,992.45
2019-01-31T13:16:20.612Z,992.47
2019-01-31T13:17:20.671Z,992.42
2019-01-31T13:18:20.566Z,992.49
2019-01-31T13:19:20.677Z,992.48
2019-01-31T13:20:20.573Z,992.42
2019-01-31T13:21:20.971Z,992.41
2019-01-31T13:22:20.687Z,992.45
2019-01-31T13:23:20.575Z,992.40
2019-01-31T13:24:20.922Z,992.43
2019-01-31T13:25:20.806Z,992.41
2019-01-31T13:26:20.548Z,992.48
2019-01-31T13:27:20.369Z,992.46
2019-01-31T13:28:20.337Z,992.45
2019-01-31T13:29:20.346Z,992.46
2019-01-31T13:30:20.316Z,992.46
2019-01-31T13:31:20.503Z,992.43
2019-01-31T13:32:20.313Z,992.43
2019-01-31T13:33:20.285Z,992.43
2019-01-31T13:34:20.261Z,992.44
2019-01-31T13:35:20.385Z,992.44
2019-01-31T13:36:20.332Z,992.45
2019-01-31T13:37:20.472Z,992.40
2019-01-31T13:38:20.309Z,992.38
2019-01-31T13:39:20.353Z,992.38
2019-01-31T13:40:20.343Z,992.37
2019-01-31T13:41:20.296Z,992.39
2019-01-31T13:42:20.467Z,992.41
2019-01-31T13:43:20.240Z,992.41
2019-01-31T13:44:20.216Z,992.38
2019-01-31T13:45:20.301Z,992.44
2019-01-31T13:46:20.523Z,992.45
2019-01-31T13:47:20.725Z,992.34
2019-01-31T13:48:20.097Z,992.36
2019-01-31T13:49:21.474Z,992.33
2019-01-31T13:50:25.392Z,992.29
2019-01-31T13:51:21.489Z,992.31
2019-01-31T13:52:20.803Z,992.24
2019-01-31T13:53:20.169Z,992.19
2019-01-31T13:54:44.076Z,992.26
2019-01-31T17:37:37.603Z,990.80
2019-01-31T17:38:37.344Z,990.85
2019-01-31T17:39:38.507Z,990.89
2019-01-31T17:40:37.889Z,990.85
2019-01-31T17:41:36.794Z,990.80
2019-01-31T17:42:36.923Z,990.79
2019-01-31T17:43:36.866Z,990.81
2019-01-31T17:44:36.703Z,990.79
2019-01-31T17:45:36.898Z,990.77
2019-01-31T17:46:36.714Z,990.70
2019-01-31T17:47:36.740Z,990.73
2019-01-31T17:48:36.719Z,990.74
2019-01-31T17:49:36.841Z,990.73
2019-01-31T17:50:36.724Z,990.78
2019-01-31T17:51:36.738Z,990.74
2019-01-31T17:52:36.699Z,990.76
2019-01-31T17:53:36.619Z,990.73
2019-01-31T17:54:36.757Z,990.72